sensor_id;sensor_type;location;lat;lon;timestamp;temperature;humidity
38866;DHT22;62686;48.984;8.394;2023-08-24T00:01:38;20.00;99.90
38866;DHT22;62686;48.984;8.394;2023-08-24T00:04:06;20.00;99.90
38866;DHT22;62686;48.984;8.394;2023-08-24T00:06:37;20.10;99.90
38866;DHT22;62686;48.984;8.394;2023-08-24T00:09:05;20.20;99.90
38866;DHT22;62686;48.984;8.394;2023-08-24T00:11:33;20.40;99.90
38866;DHT22;62686;48.984;8.394;2023-08-24T00:14:02;20.40;99.90
38866;DHT22;62686;48.984;8.394;2023-08-24T00:16:30;20.40;99.90
38866;DHT22;62686;48.984;8.394;2023-08-24T00:18:58;20.30;99.90
38866;DHT22;62686;48.984;8.394;2023-08-24T00:21:26;20.30;99.90
38866;DHT22;62686;48.984;8.394;2023-08-24T00:23:56;20.30;99.90
38866;DHT22;62686;48.984;8.394;2023-08-24T00:26:26;20.40;99.90
38866;DHT22;62686;48.984;8.394;2023-08-24T00:28:54;20.40;99.90
38866;DHT22;62686;48.984;8.394;2023-08-24T00:31:22;20.40;99.90
38866;DHT22;62686;48.984;8.394;2023-08-24T00:33:51;20.40;99.90
38866;DHT22;62686;48.984;8.394;2023-08-24T00:36:19;20.30;99.90
38866;DHT22;62686;48.984;8.394;2023-08-24T00:38:50;20.20;99.90
38866;DHT22;62686;48.984;8.394;2023-08-24T00:41:21;20.10;99.90
38866;DHT22;62686;48.984;8.394;2023-08-24T00:43:52;20.10;99.90
38866;DHT22;62686;48.984;8.394;2023-08-24T00:46:21;20.20;99.90
38866;DHT22;62686;48.984;8.394;2023-08-24T00:48:54;20.20;99.90
38866;DHT22;62686;48.984;8.394;2023-08-24T00:51:24;20.20;99.90
38866;DHT22;62686;48.984;8.394;2023-08-24T00:53:53;20.30;99.90
38866;DHT22;62686;48.984;8.394;2023-08-24T00:56:23;20.30;99.90
38866;DHT22;62686;48.984;8.394;2023-08-24T00:58:54;20.40;99.90
38866;DHT22;62686;48.984;8.394;2023-08-24T01:01:22;20.40;99.90
38866;DHT22;62686;48.984;8.394;2023-08-24T01:03:51;20.40;99.90
38866;DHT22;62686;48.984;8.394;2023-08-24T01:06:20;20.30;99.90
38866;DHT22;62686;48.984;8.394;2023-08-24T01:08:49;20.40;99.90
38866;DHT22;62686;48.984;8.394;2023-08-24T01:11:28;20.40;99.90
38866;DHT22;62686;48.984;8.394;2023-08-24T01:14:04;20.30;99.90
38866;DHT22;62686;48.984;8.394;2023-08-24T01:16:37;20.30;99.90
38866;DHT22;62686;48.984;8.394;2023-08-24T01:19:13;20.30;99.90
38866;DHT22;62686;48.984;8.394;2023-08-24T01:21:45;20.30;99.90
38866;DHT22;62686;48.984;8.394;2023-08-24T01:24:18;20.30;99.90
38866;DHT22;62686;48.984;8.394;2023-08-24T01:26:51;20.20;99.90
38866;DHT22;62686;48.984;8.394;2023-08-24T01:29:21;20.20;99.90
38866;DHT22;62686;48.984;8.394;2023-08-24T01:31:50;20.20;99.90
38866;DHT22;62686;48.984;8.394;2023-08-24T01:34:19;20.20;99.90
38866;DHT22;62686;48.984;8.394;2023-08-24T01:36:47;20.30;99.90
38866;DHT22;62686;48.984;8.394;2023-08-24T01:39:21;20.30;99.90
38866;DHT22;62686;48.984;8.394;2023-08-24T01:41:56;20.30;99.90
38866;DHT22;62686;48.984;8.394;2023-08-24T01:44:29;20.30;99.90
38866;DHT22;62686;48.984;8.394;2023-08-24T01:47:01;20.40;99.90
38866;DHT22;62686;48.984;8.394;2023-08-24T01:49:30;20.40;99.90
38866;DHT22;62686;48.984;8.394;2023-08-24T01:52:00;20.40;99.90
38866;DHT22;62686;48.984;8.394;2023-08-24T01:54:29;20.40;99.90
38866;DHT22;62686;48.984;8.394;2023-08-24T01:56:59;20.40;99.90
38866;DHT22;62686;48.984;8.394;2023-08-24T01:59:28;20.50;99.90
38866;DHT22;62686;48.984;8.394;2023-08-24T02:01:56;20.40;99.90
38866;DHT22;62686;48.984;8.394;2023-08-24T02:04:24;20.40;99.90
38866;DHT22;62686;48.984;8.394;2023-08-24T02:06:52;20.50;99.90
38866;DHT22;62686;48.984;8.394;2023-08-24T02:09:21;20.40;99.90
38866;DHT22;62686;48.984;8.394;2023-08-24T02:11:49;20.40;99.90
38866;DHT22;62686;48.984;8.394;2023-08-24T02:14:19;20.40;99.90
38866;DHT22;62686;48.984;8.394;2023-08-24T02:16:47;20.40;99.90
38866;DHT22;62686;48.984;8.394;2023-08-24T02:19:15;20.30;99.90
38866;DHT22;62686;48.984;8.394;2023-08-24T02:21:44;20.20;99.90
38866;DHT22;62686;48.984;8.394;2023-08-24T02:24:12;20.30;99.90
38866;DHT22;62686;48.984;8.394;2023-08-24T02:26:40;20.20;99.90
38866;DHT22;62686;48.984;8.394;2023-08-24T02:29:08;20.20;99.90
38866;DHT22;62686;48.984;8.394;2023-08-24T02:31:38;20.20;99.90
38866;DHT22;62686;48.984;8.394;2023-08-24T02:34:07;20.20;99.90
38866;DHT22;62686;48.984;8.394;2023-08-24T02:36:35;20.20;99.90
38866;DHT22;62686;48.984;8.394;2023-08-24T02:39:03;20.30;99.90
38866;DHT22;62686;48.984;8.394;2023-08-24T02:41:33;20.40;99.90
38866;DHT22;62686;48.984;8.394;2023-08-24T02:44:02;20.30;99.90
38866;DHT22;62686;48.984;8.394;2023-08-24T02:46:31;20.40;99.90
38866;DHT22;62686;48.984;8.394;2023-08-24T02:49:00;20.30;99.90
38866;DHT22;62686;48.984;8.394;2023-08-24T02:51:28;20.30;99.90
38866;DHT22;62686;48.984;8.394;2023-08-24T02:53:58;20.20;99.90
38866;DHT22;62686;48.984;8.394;2023-08-24T02:56:26;20.10;99.90
38866;DHT22;62686;48.984;8.394;2023-08-24T02:58:55;20.10;99.90
38866;DHT22;62686;48.984;8.394;2023-08-24T03:01:23;20.10;99.90
38866;DHT22;62686;48.984;8.394;2023-08-24T03:03:53;20.10;99.90
38866;DHT22;62686;48.984;8.394;2023-08-24T03:06:23;20.10;99.90
38866;DHT22;62686;48.984;8.394;2023-08-24T03:08:51;20.20;99.90
38866;DHT22;62686;48.984;8.394;2023-08-24T03:11:20;20.20;99.90
38866;DHT22;62686;48.984;8.394;2023-08-24T03:13:48;20.20;99.90
38866;DHT22;62686;48.984;8.394;2023-08-24T03:16:16;20.20;99.90
38866;DHT22;62686;48.984;8.394;2023-08-24T03:18:45;20.20;99.90
38866;DHT22;62686;48.984;8.394;2023-08-24T03:21:13;20.30;99.90
38866;DHT22;62686;48.984;8.394;2023-08-24T03:23:43;20.20;99.90
38866;DHT22;62686;48.984;8.394;2023-08-24T03:26:11;20.30;99.90
38866;DHT22;62686;48.984;8.394;2023-08-24T03:28:39;20.30;99.90
38866;DHT22;62686;48.984;8.394;2023-08-24T03:31:07;20.30;99.90
38866;DHT22;62686;48.984;8.394;2023-08-24T03:33:35;20.30;99.90
38866;DHT22;62686;48.984;8.394;2023-08-24T03:36:04;20.30;99.90
38866;DHT22;62686;48.984;8.394;2023-08-24T03:38:35;20.30;99.90
38866;DHT22;62686;48.984;8.394;2023-08-24T03:41:05;20.40;99.90
38866;DHT22;62686;48.984;8.394;2023-08-24T03:43:34;20.40;99.90
38866;DHT22;62686;48.984;8.394;2023-08-24T03:46:04;20.30;99.90
38866;DHT22;62686;48.984;8.394;2023-08-24T03:48:32;20.10;99.90
38866;DHT22;62686;48.984;8.394;2023-08-24T03:51:01;20.00;99.90
38866;DHT22;62686;48.984;8.394;2023-08-24T03:53:29;19.90;99.90
38866;DHT22;62686;48.984;8.394;2023-08-24T03:55:58;19.80;99.90
38866;DHT22;62686;48.984;8.394;2023-08-24T03:58:28;19.70;99.90
38866;DHT22;62686;48.984;8.394;2023-08-24T04:00:56;19.70;99.90
38866;DHT22;62686;48.984;8.394;2023-08-24T04:03:25;19.60;99.90
38866;DHT22;62686;48.984;8.394;2023-08-24T04:05:53;19.50;99.90
38866;DHT22;62686;48.984;8.394;2023-08-24T04:08:22;19.40;99.90
38866;DHT22;62686;48.984;8.394;2023-08-24T04:10:50;19.30;99.90
38866;DHT22;62686;48.984;8.394;2023-08-24T04:13:18;19.30;99.90
38866;DHT22;62686;48.984;8.394;2023-08-24T04:15:48;19.20;99.90
38866;DHT22;62686;48.984;8.394;2023-08-24T04:18:16;19.20;99.90
38866;DHT22;62686;48.984;8.394;2023-08-24T04:20:45;19.20;99.90
38866;DHT22;62686;48.984;8.394;2023-08-24T04:23:14;19.20;99.90
38866;DHT22;62686;48.984;8.394;2023-08-24T04:25:43;19.20;99.90
38866;DHT22;62686;48.984;8.394;2023-08-24T04:28:11;19.20;99.90
38866;DHT22;62686;48.984;8.394;2023-08-24T04:30:39;19.30;99.90
38866;DHT22;62686;48.984;8.394;2023-08-24T04:33:09;19.40;99.90
38866;DHT22;62686;48.984;8.394;2023-08-24T04:35:37;19.40;99.90
38866;DHT22;62686;48.984;8.394;2023-08-24T04:38:05;19.40;99.90
38866;DHT22;62686;48.984;8.394;2023-08-24T04:40:46;19.50;99.90
38866;DHT22;62686;48.984;8.394;2023-08-24T04:43:14;19.60;99.90
38866;DHT22;62686;48.984;8.394;2023-08-24T04:45:43;19.70;99.90
38866;DHT22;62686;48.984;8.394;2023-08-24T04:48:12;19.70;99.90
38866;DHT22;62686;48.984;8.394;2023-08-24T04:50:42;19.70;99.90
38866;DHT22;62686;48.984;8.394;2023-08-24T04:53:14;19.80;99.90
38866;DHT22;62686;48.984;8.394;2023-08-24T04:55:43;19.80;99.90
38866;DHT22;62686;48.984;8.394;2023-08-24T04:58:11;19.80;99.90
38866;DHT22;62686;48.984;8.394;2023-08-24T05:00:40;19.70;99.90
38866;DHT22;62686;48.984;8.394;2023-08-24T05:03:09;19.70;99.90
38866;DHT22;62686;48.984;8.394;2023-08-24T05:05:38;19.80;99.90
38866;DHT22;62686;48.984;8.394;2023-08-24T05:08:07;19.90;99.90
38866;DHT22;62686;48.984;8.394;2023-08-24T05:10:38;20.00;99.90
38866;DHT22;62686;48.984;8.394;2023-08-24T05:13:11;20.30;99.90
38866;DHT22;62686;48.984;8.394;2023-08-24T05:15:45;20.50;99.90
38866;DHT22;62686;48.984;8.394;2023-08-24T05:18:17;20.80;99.90
38866;DHT22;62686;48.984;8.394;2023-08-24T05:20:51;21.20;99.90
38866;DHT22;62686;48.984;8.394;2023-08-24T05:23:21;21.60;99.90
38866;DHT22;62686;48.984;8.394;2023-08-24T05:25:50;21.90;99.90
38866;DHT22;62686;48.984;8.394;2023-08-24T05:28:19;22.20;99.90
38866;DHT22;62686;48.984;8.394;2023-08-24T05:30:51;22.40;99.90
38866;DHT22;62686;48.984;8.394;2023-08-24T05:33:22;22.50;99.90
38866;DHT22;62686;48.984;8.394;2023-08-24T05:36:00;22.60;99.90
38866;DHT22;62686;48.984;8.394;2023-08-24T05:38:31;22.60;99.90
38866;DHT22;62686;48.984;8.394;2023-08-24T05:40:59;22.50;99.90
38866;DHT22;62686;48.984;8.394;2023-08-24T05:43:37;22.50;99.90
38866;DHT22;62686;48.984;8.394;2023-08-24T05:46:08;22.40;99.90
38866;DHT22;62686;48.984;8.394;2023-08-24T05:48:39;22.30;99.90
38866;DHT22;62686;48.984;8.394;2023-08-24T05:51:11;22.20;99.90
38866;DHT22;62686;48.984;8.394;2023-08-24T05:53:43;22.10;99.90
38866;DHT22;62686;48.984;8.394;2023-08-24T05:56:17;22.00;99.90
38866;DHT22;62686;48.984;8.394;2023-08-24T05:58:53;22.00;99.90
38866;DHT22;62686;48.984;8.394;2023-08-24T06:01:22;22.10;99.90
38866;DHT22;62686;48.984;8.394;2023-08-24T06:03:50;22.10;99.90
38866;DHT22;62686;48.984;8.394;2023-08-24T06:06:23;22.00;99.90
38866;DHT22;62686;48.984;8.394;2023-08-24T06:08:53;22.00;99.90
38866;DHT22;62686;48.984;8.394;2023-08-24T06:11:21;22.00;99.90
38866;DHT22;62686;48.984;8.394;2023-08-24T06:13:55;21.90;99.90
38866;DHT22;62686;48.984;8.394;2023-08-24T06:16:23;21.80;99.90
38866;DHT22;62686;48.984;8.394;2023-08-24T06:18:51;21.80;99.90
38866;DHT22;62686;48.984;8.394;2023-08-24T06:21:21;21.70;99.90
38866;DHT22;62686;48.984;8.394;2023-08-24T06:23:49;21.70;99.90
38866;DHT22;62686;48.984;8.394;2023-08-24T06:26:18;21.80;99.90
38866;DHT22;62686;48.984;8.394;2023-08-24T06:28:46;21.90;99.90
38866;DHT22;62686;48.984;8.394;2023-08-24T06:31:15;22.10;99.90
38866;DHT22;62686;48.984;8.394;2023-08-24T06:33:44;22.20;99.90
38866;DHT22;62686;48.984;8.394;2023-08-24T06:36:12;22.20;99.90
38866;DHT22;62686;48.984;8.394;2023-08-24T06:38:43;22.30;99.90
38866;DHT22;62686;48.984;8.394;2023-08-24T06:41:12;22.50;99.90
38866;DHT22;62686;48.984;8.394;2023-08-24T06:43:40;22.60;99.90
38866;DHT22;62686;48.984;8.394;2023-08-24T06:46:09;22.80;99.90
38866;DHT22;62686;48.984;8.394;2023-08-24T06:48:37;23.00;99.90
38866;DHT22;62686;48.984;8.394;2023-08-24T06:51:06;23.20;99.90
38866;DHT22;62686;48.984;8.394;2023-08-24T06:53:35;23.30;99.90
38866;DHT22;62686;48.984;8.394;2023-08-24T06:56:05;23.70;99.90
38866;DHT22;62686;48.984;8.394;2023-08-24T06:58:33;24.10;99.90
38866;DHT22;62686;48.984;8.394;2023-08-24T07:01:01;24.40;99.90
38866;DHT22;62686;48.984;8.394;2023-08-24T07:03:32;24.40;99.90
38866;DHT22;62686;48.984;8.394;2023-08-24T07:06:01;24.80;99.90
38866;DHT22;62686;48.984;8.394;2023-08-24T07:08:29;25.40;99.90
38866;DHT22;62686;48.984;8.394;2023-08-24T07:10:57;26.30;99.90
38866;DHT22;62686;48.984;8.394;2023-08-24T07:13:27;26.80;99.90
38866;DHT22;62686;48.984;8.394;2023-08-24T07:15:55;27.60;99.90
38866;DHT22;62686;48.984;8.394;2023-08-24T07:18:24;28.30;99.90
38866;DHT22;62686;48.984;8.394;2023-08-24T07:20:52;29.10;99.90
38866;DHT22;62686;48.984;8.394;2023-08-24T07:23:22;30.00;99.90
38866;DHT22;62686;48.984;8.394;2023-08-24T07:25:51;30.40;99.90
38866;DHT22;62686;48.984;8.394;2023-08-24T07:28:19;30.30;99.90
38866;DHT22;62686;48.984;8.394;2023-08-24T07:30:49;30.80;99.90
38866;DHT22;62686;48.984;8.394;2023-08-24T07:33:20;31.40;99.90
38866;DHT22;62686;48.984;8.394;2023-08-24T07:35:49;32.10;99.90
38866;DHT22;62686;48.984;8.394;2023-08-24T07:38:18;32.00;99.90
38866;DHT22;62686;48.984;8.394;2023-08-24T07:40:47;32.10;99.90
38866;DHT22;62686;48.984;8.394;2023-08-24T07:43:15;32.20;99.90
38866;DHT22;62686;48.984;8.394;2023-08-24T07:45:44;32.30;99.90
38866;DHT22;62686;48.984;8.394;2023-08-24T07:48:13;32.60;99.90
38866;DHT22;62686;48.984;8.394;2023-08-24T07:50:42;33.40;99.90
38866;DHT22;62686;48.984;8.394;2023-08-24T07:53:12;33.80;99.00
38866;DHT22;62686;48.984;8.394;2023-08-24T07:55:41;34.30;99.10
38866;DHT22;62686;48.984;8.394;2023-08-24T07:58:10;34.70;96.80
38866;DHT22;62686;48.984;8.394;2023-08-24T08:00:38;34.50;95.10
38866;DHT22;62686;48.984;8.394;2023-08-24T08:03:07;34.30;95.00
38866;DHT22;62686;48.984;8.394;2023-08-24T08:05:37;34.10;94.90
38866;DHT22;62686;48.984;8.394;2023-08-24T08:08:06;34.00;95.80
38866;DHT22;62686;48.984;8.394;2023-08-24T08:10:34;34.00;95.20
38866;DHT22;62686;48.984;8.394;2023-08-24T08:13:03;34.20;95.00
38866;DHT22;62686;48.984;8.394;2023-08-24T08:15:31;34.60;93.90
38866;DHT22;62686;48.984;8.394;2023-08-24T08:17:59;34.60;93.80
38866;DHT22;62686;48.984;8.394;2023-08-24T08:20:28;34.90;93.20
38866;DHT22;62686;48.984;8.394;2023-08-24T08:22:58;34.60;93.00
38866;DHT22;62686;48.984;8.394;2023-08-24T08:25:26;34.30;94.00
38866;DHT22;62686;48.984;8.394;2023-08-24T08:27:55;34.40;94.10
38866;DHT22;62686;48.984;8.394;2023-08-24T08:30:23;34.50;95.10
38866;DHT22;62686;48.984;8.394;2023-08-24T08:32:51;35.00;93.70
38866;DHT22;62686;48.984;8.394;2023-08-24T08:35:22;35.30;93.20
38866;DHT22;62686;48.984;8.394;2023-08-24T08:37:50;34.50;92.90
38866;DHT22;62686;48.984;8.394;2023-08-24T08:40:24;34.60;93.40
38866;DHT22;62686;48.984;8.394;2023-08-24T08:42:57;35.10;94.60
38866;DHT22;62686;48.984;8.394;2023-08-24T08:45:25;35.90;94.00
38866;DHT22;62686;48.984;8.394;2023-08-24T08:47:56;36.20;91.40
38866;DHT22;62686;48.984;8.394;2023-08-24T08:50:26;36.70;92.40
38866;DHT22;62686;48.984;8.394;2023-08-24T08:52:58;36.50;91.40
38866;DHT22;62686;48.984;8.394;2023-08-24T08:55:28;36.20;90.90
38866;DHT22;62686;48.984;8.394;2023-08-24T08:57:58;36.20;92.30
38866;DHT22;62686;48.984;8.394;2023-08-24T09:00:28;36.10;90.90
38866;DHT22;62686;48.984;8.394;2023-08-24T09:02:58;35.60;91.40
38866;DHT22;62686;48.984;8.394;2023-08-24T09:05:27;35.40;92.40
38866;DHT22;62686;48.984;8.394;2023-08-24T09:07:55;35.30;92.70
38866;DHT22;62686;48.984;8.394;2023-08-24T09:10:28;35.20;93.20
38866;DHT22;62686;48.984;8.394;2023-08-24T09:12:56;35.70;92.10
38866;DHT22;62686;48.984;8.394;2023-08-24T09:15:25;36.30;91.60
38866;DHT22;62686;48.984;8.394;2023-08-24T09:17:55;36.80;91.10
38866;DHT22;62686;48.984;8.394;2023-08-24T09:20:27;36.70;90.50
38866;DHT22;62686;48.984;8.394;2023-08-24T09:22:57;36.40;90.40
38866;DHT22;62686;48.984;8.394;2023-08-24T09:25:26;36.00;90.90
38866;DHT22;62686;48.984;8.394;2023-08-24T09:27:58;35.10;91.60
38866;DHT22;62686;48.984;8.394;2023-08-24T09:30:30;33.50;93.00
38866;DHT22;62686;48.984;8.394;2023-08-24T09:33:02;32.50;94.70
38866;DHT22;62686;48.984;8.394;2023-08-24T09:35:36;32.00;97.10
38866;DHT22;62686;48.984;8.394;2023-08-24T09:38:16;31.60;96.60
38866;DHT22;62686;48.984;8.394;2023-08-24T09:40:48;31.60;98.10
38866;DHT22;62686;48.984;8.394;2023-08-24T09:43:21;31.60;97.60
38866;DHT22;62686;48.984;8.394;2023-08-24T09:45:51;32.10;99.40
38866;DHT22;62686;48.984;8.394;2023-08-24T09:48:21;32.60;97.60
38866;DHT22;62686;48.984;8.394;2023-08-24T09:50:51;33.10;98.50
38866;DHT22;62686;48.984;8.394;2023-08-24T09:53:21;34.00;96.50
38866;DHT22;62686;48.984;8.394;2023-08-24T09:55:54;34.50;96.60
38866;DHT22;62686;48.984;8.394;2023-08-24T09:58:25;34.80;95.20
38866;DHT22;62686;48.984;8.394;2023-08-24T10:00:55;34.20;95.60
38866;DHT22;62686;48.984;8.394;2023-08-24T10:03:25;33.80;95.90
38866;DHT22;62686;48.984;8.394;2023-08-24T10:05:55;34.00;96.10
38866;DHT22;62686;48.984;8.394;2023-08-24T10:08:29;34.10;96.00
38866;DHT22;62686;48.984;8.394;2023-08-24T10:11:01;34.30;95.50
38866;DHT22;62686;48.984;8.394;2023-08-24T10:13:39;34.50;96.70
38866;DHT22;62686;48.984;8.394;2023-08-24T10:16:13;34.70;95.60
38866;DHT22;62686;48.984;8.394;2023-08-24T10:18:43;34.50;95.80
38866;DHT22;62686;48.984;8.394;2023-08-24T10:21:11;33.80;95.90
38866;DHT22;62686;48.984;8.394;2023-08-24T10:23:42;33.80;99.60
38866;DHT22;62686;48.984;8.394;2023-08-24T10:26:15;33.70;97.10
38866;DHT22;62686;48.984;8.394;2023-08-24T10:28:48;33.20;96.70
38866;DHT22;62686;48.984;8.394;2023-08-24T10:31:18;32.50;97.60
38866;DHT22;62686;48.984;8.394;2023-08-24T10:33:48;32.20;99.00
38866;DHT22;62686;48.984;8.394;2023-08-24T10:36:17;31.80;99.80
38866;DHT22;62686;48.984;8.394;2023-08-24T10:38:45;31.70;99.70
38866;DHT22;62686;48.984;8.394;2023-08-24T10:41:14;31.70;99.90
38866;DHT22;62686;48.984;8.394;2023-08-24T10:43:49;31.80;99.90
38866;DHT22;62686;48.984;8.394;2023-08-24T10:46:18;31.80;99.90
38866;DHT22;62686;48.984;8.394;2023-08-24T10:48:57;32.00;98.80
38866;DHT22;62686;48.984;8.394;2023-08-24T10:51:25;32.00;98.50
38866;DHT22;62686;48.984;8.394;2023-08-24T10:53:56;32.10;98.50
38866;DHT22;62686;48.984;8.394;2023-08-24T10:56:35;32.20;99.90
38866;DHT22;62686;48.984;8.394;2023-08-24T10:59:13;32.30;99.40
38866;DHT22;62686;48.984;8.394;2023-08-24T11:01:42;32.50;99.00
38866;DHT22;62686;48.984;8.394;2023-08-24T11:04:12;32.60;99.20
38866;DHT22;62686;48.984;8.394;2023-08-24T11:06:53;32.80;98.30
38866;DHT22;62686;48.984;8.394;2023-08-24T11:09:23;32.90;98.60
38866;DHT22;62686;48.984;8.394;2023-08-24T11:11:56;33.10;99.10
38866;DHT22;62686;48.984;8.394;2023-08-24T11:14:27;33.50;98.10
38866;DHT22;62686;48.984;8.394;2023-08-24T11:16:58;34.00;98.30
38866;DHT22;62686;48.984;8.394;2023-08-24T11:19:27;34.70;97.80
38866;DHT22;62686;48.984;8.394;2023-08-24T11:22:00;35.30;95.80
38866;DHT22;62686;48.984;8.394;2023-08-24T11:24:30;36.00;95.70
38866;DHT22;62686;48.984;8.394;2023-08-24T11:27:02;37.20;95.70
38866;DHT22;62686;48.984;8.394;2023-08-24T11:29:33;37.60;93.70
38866;DHT22;62686;48.984;8.394;2023-08-24T11:32:01;37.50;93.40
38866;DHT22;62686;48.984;8.394;2023-08-24T11:34:30;36.90;93.80
38866;DHT22;62686;48.984;8.394;2023-08-24T11:36:58;36.60;93.20
38866;DHT22;62686;48.984;8.394;2023-08-24T11:39:26;36.70;94.40
38866;DHT22;62686;48.984;8.394;2023-08-24T11:41:59;36.60;93.90
38866;DHT22;62686;48.984;8.394;2023-08-24T11:44:28;36.90;94.50
38866;DHT22;62686;48.984;8.394;2023-08-24T11:46:58;38.00;93.00
38866;DHT22;62686;48.984;8.394;2023-08-24T11:49:29;39.60;91.60
38866;DHT22;62686;48.984;8.394;2023-08-24T11:51:57;40.00;89.10
38866;DHT22;62686;48.984;8.394;2023-08-24T11:54:26;40.20;89.30
38866;DHT22;62686;48.984;8.394;2023-08-24T11:56:54;40.10;88.70
38866;DHT22;62686;48.984;8.394;2023-08-24T11:59:22;40.10;86.80
38866;DHT22;62686;48.984;8.394;2023-08-24T12:01:51;39.70;90.10
38866;DHT22;62686;48.984;8.394;2023-08-24T12:04:22;40.30;90.00
38866;DHT22;62686;48.984;8.394;2023-08-24T12:06:53;40.60;86.00
38866;DHT22;62686;48.984;8.394;2023-08-24T12:09:21;40.40;86.90
38866;DHT22;62686;48.984;8.394;2023-08-24T12:11:55;39.70;87.20
38866;DHT22;62686;48.984;8.394;2023-08-24T12:14:24;39.00;89.90
38866;DHT22;62686;48.984;8.394;2023-08-24T12:16:55;38.90;91.40
38866;DHT22;62686;48.984;8.394;2023-08-24T12:19:25;39.90;89.50
38866;DHT22;62686;48.984;8.394;2023-08-24T12:21:53;41.40;89.10
38866;DHT22;62686;48.984;8.394;2023-08-24T12:24:22;42.60;83.90
38866;DHT22;62686;48.984;8.394;2023-08-24T12:26:55;43.60;81.60
38866;DHT22;62686;48.984;8.394;2023-08-24T12:29:25;43.60;77.90
38866;DHT22;62686;48.984;8.394;2023-08-24T12:31:57;43.70;81.00
38866;DHT22;62686;48.984;8.394;2023-08-24T12:34:28;42.80;77.80
38866;DHT22;62686;48.984;8.394;2023-08-24T12:36:57;42.30;83.60
38866;DHT22;62686;48.984;8.394;2023-08-24T12:39:25;41.70;79.50
38866;DHT22;62686;48.984;8.394;2023-08-24T12:41:53;41.40;80.50
38866;DHT22;62686;48.984;8.394;2023-08-24T12:44:22;41.60;82.20
38866;DHT22;62686;48.984;8.394;2023-08-24T12:46:51;41.60;82.10
38866;DHT22;62686;48.984;8.394;2023-08-24T12:49:19;41.30;80.30
38866;DHT22;62686;48.984;8.394;2023-08-24T12:51:49;41.30;79.80
38866;DHT22;62686;48.984;8.394;2023-08-24T12:54:17;41.10;80.60
38866;DHT22;62686;48.984;8.394;2023-08-24T12:56:46;41.10;81.30
38866;DHT22;62686;48.984;8.394;2023-08-24T12:59:14;41.10;82.70
38866;DHT22;62686;48.984;8.394;2023-08-24T13:01:42;42.10;78.40
38866;DHT22;62686;48.984;8.394;2023-08-24T13:04:11;42.70;79.80
38866;DHT22;62686;48.984;8.394;2023-08-24T13:06:40;43.40;75.50
38866;DHT22;62686;48.984;8.394;2023-08-24T13:09:09;44.10;74.40
38866;DHT22;62686;48.984;8.394;2023-08-24T13:11:38;44.40;74.50
38866;DHT22;62686;48.984;8.394;2023-08-24T13:14:07;44.00;74.60
38866;DHT22;62686;48.984;8.394;2023-08-24T13:16:37;43.70;72.80
38866;DHT22;62686;48.984;8.394;2023-08-24T13:19:06;43.50;72.00
38866;DHT22;62686;48.984;8.394;2023-08-24T13:21:35;43.70;74.00
38866;DHT22;62686;48.984;8.394;2023-08-24T13:24:04;43.60;73.00
38866;DHT22;62686;48.984;8.394;2023-08-24T13:26:34;43.70;71.60
38866;DHT22;62686;48.984;8.394;2023-08-24T13:29:02;43.70;72.10
38866;DHT22;62686;48.984;8.394;2023-08-24T13:31:30;43.80;71.30
38866;DHT22;62686;48.984;8.394;2023-08-24T13:33:59;43.90;71.20
38866;DHT22;62686;48.984;8.394;2023-08-24T13:36:28;42.30;72.30
38866;DHT22;62686;48.984;8.394;2023-08-24T13:38:57;41.20;76.20
38866;DHT22;62686;48.984;8.394;2023-08-24T13:41:25;40.30;76.80
38866;DHT22;62686;48.984;8.394;2023-08-24T13:43:55;39.60;78.60
38866;DHT22;62686;48.984;8.394;2023-08-24T13:46:23;38.50;81.40
38866;DHT22;62686;48.984;8.394;2023-08-24T13:48:51;37.30;83.60
38866;DHT22;62686;48.984;8.394;2023-08-24T13:51:20;36.20;88.60
38866;DHT22;62686;48.984;8.394;2023-08-24T13:53:48;35.50;89.70
38866;DHT22;62686;48.984;8.394;2023-08-24T13:56:16;34.90;90.90
38866;DHT22;62686;48.984;8.394;2023-08-24T13:58:45;34.30;91.80
38866;DHT22;62686;48.984;8.394;2023-08-24T14:01:15;33.80;93.10
38866;DHT22;62686;48.984;8.394;2023-08-24T14:03:43;33.50;93.80
38866;DHT22;62686;48.984;8.394;2023-08-24T14:06:12;33.00;94.30
38866;DHT22;62686;48.984;8.394;2023-08-24T14:08:40;32.50;95.10
38866;DHT22;62686;48.984;8.394;2023-08-24T14:11:09;32.10;96.10
38866;DHT22;62686;48.984;8.394;2023-08-24T14:13:40;31.70;97.90
38866;DHT22;62686;48.984;8.394;2023-08-24T14:16:09;31.30;99.60
38866;DHT22;62686;48.984;8.394;2023-08-24T14:18:38;30.70;99.90
38866;DHT22;62686;48.984;8.394;2023-08-24T14:21:07;30.10;99.90
38866;DHT22;62686;48.984;8.394;2023-08-24T14:23:38;28.10;99.90
38866;DHT22;62686;48.984;8.394;2023-08-24T14:26:06;26.70;99.90
38866;DHT22;62686;48.984;8.394;2023-08-24T14:28:48;25.70;99.90
38866;DHT22;62686;48.984;8.394;2023-08-24T14:31:17;25.00;99.90
38866;DHT22;62686;48.984;8.394;2023-08-24T14:33:47;24.50;99.90
38866;DHT22;62686;48.984;8.394;2023-08-24T14:36:15;24.10;99.90
38866;DHT22;62686;48.984;8.394;2023-08-24T14:38:43;23.90;99.90
38866;DHT22;62686;48.984;8.394;2023-08-24T14:41:13;23.60;99.90
38866;DHT22;62686;48.984;8.394;2023-08-24T14:43:42;23.50;99.90
38866;DHT22;62686;48.984;8.394;2023-08-24T14:46:10;23.40;99.90
38866;DHT22;62686;48.984;8.394;2023-08-24T14:48:39;23.30;99.90
38866;DHT22;62686;48.984;8.394;2023-08-24T14:51:08;23.30;99.90
38866;DHT22;62686;48.984;8.394;2023-08-24T14:53:39;23.50;99.90
38866;DHT22;62686;48.984;8.394;2023-08-24T14:56:08;23.60;99.90
38866;DHT22;62686;48.984;8.394;2023-08-24T14:58:38;23.60;99.90
38866;DHT22;62686;48.984;8.394;2023-08-24T15:01:06;23.60;99.90
38866;DHT22;62686;48.984;8.394;2023-08-24T15:03:36;23.70;99.90
38866;DHT22;62686;48.984;8.394;2023-08-24T15:06:05;23.70;99.90
38866;DHT22;62686;48.984;8.394;2023-08-24T15:08:36;23.90;99.90
38866;DHT22;62686;48.984;8.394;2023-08-24T15:11:05;24.10;99.90
38866;DHT22;62686;48.984;8.394;2023-08-24T15:13:34;24.40;99.90
38866;DHT22;62686;48.984;8.394;2023-08-24T15:16:02;24.70;99.90
38866;DHT22;62686;48.984;8.394;2023-08-24T15:18:31;25.20;99.90
38866;DHT22;62686;48.984;8.394;2023-08-24T15:20:59;25.70;99.90
38866;DHT22;62686;48.984;8.394;2023-08-24T15:23:29;26.00;99.90
38866;DHT22;62686;48.984;8.394;2023-08-24T15:26:01;26.40;99.90
38866;DHT22;62686;48.984;8.394;2023-08-24T15:28:36;27.00;99.90
38866;DHT22;62686;48.984;8.394;2023-08-24T15:31:04;27.40;99.90
38866;DHT22;62686;48.984;8.394;2023-08-24T15:33:33;27.60;99.90
38866;DHT22;62686;48.984;8.394;2023-08-24T15:36:01;27.80;99.90
38866;DHT22;62686;48.984;8.394;2023-08-24T15:38:29;28.00;99.90
38866;DHT22;62686;48.984;8.394;2023-08-24T15:41:00;28.10;99.90
38866;DHT22;62686;48.984;8.394;2023-08-24T15:43:29;28.10;99.90
38866;DHT22;62686;48.984;8.394;2023-08-24T15:45:58;27.90;99.90